Time;durP1;ratioP1;P1;durP2;ratioP2;P2;SDS_P1;SDS_P2;PMS_P1;PMS_P2;Temp;Humidity;BMP_temperature;BMP_pressure;BME280_temperature;BME280_humidity;BME280_pressure;Samples;Min_cycle;Max_cycle;Signal;HPM_P1;HPM_P2
2022/08/12 00:44:09;;;;;;;;;22.33;20.33;;;;;25.88;40.54;101314.38;4996476;28;45543;-77
2022/08/12 00:46:43;;;;;;;;;23.33;20.67;;;;;25.85;40.99;101315.41;4996886;28;45408;-74
2022/08/12 00:49:09;;;;;;;;;21.75;20.50;;;;;25.81;41.65;101305.69;4978990;28;45444;-76
2022/08/12 00:54:22;;;;;;;;;19.33;18.00;;;;;25.74;41.50;101303.28;4996441;28;45611;-74
2022/08/12 00:56:49;;;;;;;;;19.00;19.00;;;;;25.73;41.82;101306.94;4995990;28;45468;-74
2022/08/12 00:59:15;;;;;;;;;21.00;18.67;;;;;25.69;41.45;101300.78;4996667;28;45452;-74
2022/08/12 01:01:44;;;;;;;;;23.00;19.00;;;;;25.66;41.63;101300.03;4996549;28;46716;-74
2022/08/12 01:12:26;;;;;;;;;22.00;21.00;;;;;25.49;42.08;101292.66;4981166;28;45455;-77
2022/08/12 01:14:52;;;;;;;;;23.00;21.00;;;;;25.50;42.07;101294.41;4996049;28;45467;-75
2022/08/12 01:17:20;;;;;;;;;24.00;21.00;;;;;25.47;42.00;101290.03;4995151;28;45317;-75
2022/08/12 01:19:47;;;;;;;;;24.00;22.00;;;;;25.47;41.93;101297.28;4996177;28;46464;-75
2022/08/12 01:22:29;;;;;;;;;19.33;18.00;;;;;25.42;42.75;101293.91;4978729;28;46532;-75
2022/08/12 01:25:02;;;;;;;;;24.33;21.67;;;;;25.40;42.08;101298.47;4975326;28;45370;-75
2022/08/12 01:27:29;;;;;;;;;20.00;18.33;;;;;25.36;42.94;101303.16;4997437;28;45364;-77
2022/08/12 01:29:57;;;;;;;;;21.75;20.50;;;;;25.31;42.79;101300.66;5000787;28;45511;-74
2022/08/12 01:32:25;;;;;;;;;20.67;18.00;;;;;25.30;42.86;101297.97;4981766;28;47475;-74
2022/08/12 01:35:11;;;;;;;;;23.67;20.67;;;;;25.28;42.63;101303.47;4998847;28;45523;-75
2022/08/12 01:37:57;;;;;;;;;21.67;20.33;;;;;25.27;42.46;101299.00;4999503;28;45628;-74
2022/08/12 01:40:26;;;;;;;;;19.00;19.00;;;;;25.22;43.25;101292.03;4992701;28;45329;-74
2022/08/12 01:42:54;;;;;;;;;18.75;18.25;;;;;25.18;43.16;101293.97;4998941;28;45758;-74
2022/08/12 01:45:23;;;;;;;;;20.67;19.33;;;;;25.19;42.61;101294.84;4982019;28;45578;-76
2022/08/12 01:48:03;;;;;;;;;18.67;18.00;;;;;25.18;42.86;101298.50;4999244;28;45436;-74
2022/08/12 01:50:49;;;;;;;;;17.67;14.33;;;;;25.16;43.10;101297.72;4993909;28;46079;-74
2022/08/12 01:53:18;;;;;;;;;15.00;15.00;;;;;25.11;42.76;101295.19;4981368;28;46213;-74
2022/08/12 01:55:45;;;;;;;;;19.33;18.00;;;;;25.07;42.64;101297.13;4998861;28;45574;-75
2022/08/12 01:58:27;;;;;;;;;18.67;18.00;;;;;25.08;42.91;101295.31;4998964;28;45490;-75
2022/08/12 02:01:07;;;;;;;;;18.67;17.00;;;;;25.05;43.18;101292.72;4981354;28;45373;-75
2022/08/12 02:12:20;;;;;;;;;17.33;15.00;;;;;24.90;43.57;101280.72;4984028;28;45322;-74
2022/08/12 02:15:21;;;;;;;;;19.00;17.67;;;;;24.87;43.00;101278.13;4981535;28;46364;-75
2022/08/12 02:18:03;;;;;;;;;20.67;19.00;;;;;24.82;43.23;101277.44;4993201;28;45217;-76
2022/08/12 02:20:48;;;;;;;;;18.33;16.67;;;;;24.75;43.52;101275.94;4998375;28;46073;-74
2022/08/12 02:23:14;;;;;;;;;18.00;17.00;;;;;24.70;43.77;101264.44;4998951;28;46773;-75
2022/08/12 02:25:44;;;;;;;;;18.67;14.33;;;;;24.69;43.79;101265.41;4997854;28;70802;-75
2022/08/12 02:28:10;;;;;;;;;20.00;17.00;;;;;24.66;43.73;101269.13;4994701;28;45698;-74
2022/08/12 02:30:36;;;;;;;;;18.33;17.00;;;;;24.63;44.01;101263.84;5000002;28;45459;-74
2022/08/12 02:33:03;;;;;;;;;15.00;15.00;;;;;24.60;43.97;101266.66;4998726;28;45345;-74
2022/08/12 02:35:31;;;;;;;;;14.67;14.67;;;;;24.56;43.73;101265.03;4996650;28;45559;-75
2022/08/12 02:37:59;;;;;;;;;18.33;18.33;;;;;24.53;44.03;101265.16;4997828;28;45567;-74
2022/08/12 02:40:26;;;;;;;;;17.67;16.33;;;;;24.50;44.09;101268.84;4998573;28;45563;-74
2022/08/12 02:43:11;;;;;;;;;17.25;17.25;;;;;24.46;44.24;101269.91;4998892;28;45574;-74
2022/08/12 02:46:12;;;;;;;;;15.00;15.00;;;;;24.42;44.45;101265.56;4980903;28;46210;-74
2022/08/12 02:48:50;;;;;;;;;19.33;17.33;;;;;24.38;44.82;101263.94;4976730;28;45247;-74
2022/08/12 02:51:22;;;;;;;;;20.67;15.33;;;;;24.33;44.86;101271.28;4998394;28;45522;-74
2022/08/12 02:53:49;;;;;;;;;16.67;15.67;;;;;24.26;44.84;101261.69;4980958;28;45424;-76
2022/08/12 02:56:16;;;;;;;;;17.33;16.00;;;;;24.25;45.00;101262.63;4997493;28;47377;-76
2022/08/12 02:58:44;;;;;;;;;18.00;17.25;;;;;24.22;45.46;101262.72;4998033;28;45459;-74
2022/08/12 03:01:10;;;;;;;;;11.67;11.67;;;;;24.19;45.32;101265.56;4980991;28;45405;-74
2022/08/12 03:03:38;;;;;;;;;18.33;15.67;;;;;24.14;45.60;101257.66;4997990;28;45231;-75
2022/08/12 03:06:10;;;;;;;;;18.67;17.33;;;;;24.15;45.54;101269.31;4995968;28;46401;-74
2022/08/12 03:08:42;;;;;;;;;18.33;18.33;;;;;24.15;45.92;101266.63;4980248;28;45448;-74
2022/08/12 03:11:22;;;;;;;;;20.75;18.00;;;;;24.14;45.86;101264.88;4998122;28;45536;-76
2022/08/12 03:13:54;;;;;;;;;19.33;19.33;;;;;24.15;45.91;101266.63;4997248;28;45219;-74
2022/08/12 03:16:20;;;;;;;;;14.67;14.67;;;;;24.13;45.61;101263.06;4980484;28;46288;-74
2022/08/12 03:18:45;;;;;;;;;15.67;15.67;;;;;24.13;45.89;101266.69;4997626;28;45354;-74
2022/08/12 03:21:12;;;;;;;;;18.00;15.67;;;;;24.13;45.74;101264.00;4979733;28;45525;-74
2022/08/12 03:23:39;;;;;;;;;19.00;18.00;;;;;24.15;45.95;101270.19;4997479;28;45306;-74
2022/08/12 03:26:05;;;;;;;;;16.00;14.33;;;;;24.14;45.83;101268.44;4996535;28;46388;-74
2022/08/12 03:31:23;;;;;;;;;18.50;16.25;;;;;24.15;46.00;101272.00;4997853;28;45546;-74
2022/08/12 03:33:49;;;;;;;;;18.33;16.33;;;;;24.13;45.71;101274.78;4993738;28;45572;-74
2022/08/12 03:36:20;;;;;;;;;19.25;15.50;;;;;24.11;46.05;101281.16;4997590;28;45823;-74
2022/08/12 03:39:18;;;;;;;;;18.33;17.33;;;;;24.08;45.69;101281.28;4997319;28;45420;-75
2022/08/12 03:41:40;;;;;;;;;14.33;13.67;;;;;24.10;45.62;101274.00;4997124;28;45472;-75
2022/08/12 04:00:45;;;;;;;;;15.33;15.33;;;;;23.85;46.00;101274.91;4989661;28;45276;-74
2022/08/12 04:05:54;;;;;;;;;18.67;17.00;;;;;23.82;46.06;101264.25;4995415;28;45345;-74
2022/08/12 04:08:24;;;;;;;;;16.33;15.67;;;;;23.81;46.17;101267.00;4996988;28;46022;-73
2022/08/12 04:13:34;;;;;;;;;14.67;14.33;;;;;23.73;46.23;101262.78;4991413;28;45293;-73
2022/08/12 04:16:01;;;;;;;;;13.25;13.25;;;;;23.68;46.85;101266.56;4997272;28;45592;-74
2022/08/12 04:18:27;;;;;;;;;15.33;13.67;;;;;23.64;46.93;101256.81;4997023;28;45642;-75
2022/08/12 04:20:53;;;;;;;;;15.50;15.50;;;;;23.60;46.87;101263.25;4996977;28;45490;-74
2022/08/12 04:23:19;;;;;;;;;16.00;16.00;;;;;23.55;46.98;101267.94;4995336;28;63500;-73
2022/08/12 04:25:44;;;;;;;;;13.25;10.75;;;;;23.50;47.13;101263.59;4995643;28;63684;-74
2022/08/12 04:28:11;;;;;;;;;17.25;14.25;;;;;23.48;47.28;101267.25;4996007;28;68942;-75
2022/08/12 04:30:38;;;;;;;;;16.50;16.25;;;;;23.46;47.58;101269.13;4989320;28;45739;-75
2022/08/12 04:33:07;;;;;;;;;16.33;14.67;;;;;23.40;47.63;101258.56;4996867;28;45470;-74
2022/08/12 04:35:33;;;;;;;;;17.75;17.00;;;;;23.37;47.56;101262.25;4996572;28;45230;-74
2022/08/12 04:37:59;;;;;;;;;16.00;14.00;;;;;23.34;47.74;101266.88;4978844;28;46384;-74
2022/08/12 04:40:26;;;;;;;;;16.33;16.33;;;;;23.31;47.92;101273.25;4996169;28;54406;-74
2022/08/12 04:42:52;;;;;;;;;18.75;17.50;;;;;23.29;48.04;101277.81;4996406;28;45440;-74
2022/08/12 04:45:18;;;;;;;;;20.33;17.67;;;;;23.25;48.01;101268.06;4997104;28;45527;-74
2022/08/12 04:47:44;;;;;;;;;16.25;16.00;;;;;23.24;48.15;101266.31;4996528;28;45413;-74
2022/08/12 04:50:13;;;;;;;;;16.33;13.67;;;;;23.23;48.38;101269.94;4996444;28;45345;-73
2022/08/12 04:52:38;;;;;;;;;14.50;14.50;;;;;23.23;48.37;101270.81;4978826;28;45464;-73
2022/08/12 04:55:04;;;;;;;;;17.00;15.67;;;;;23.26;48.48;101273.41;4995748;28;59998;-73
2022/08/12 04:57:29;;;;;;;;;14.33;14.33;;;;;23.26;48.36;101275.22;4978096;28;46211;-72
2022/08/12 04:59:55;;;;;;;;;16.50;15.50;;;;;23.29;48.45;101266.16;4995656;28;64696;-73
2022/08/12 05:02:20;;;;;;;;;17.67;15.67;;;;;23.29;48.54;101269.72;4990955;28;64122;-73
2022/08/12 05:04:49;;;;;;;;;17.50;17.00;;;;;23.28;48.59;101267.97;4994816;28;45531;-73
2022/08/12 05:07:15;;;;;;;;;16.75;16.25;;;;;23.31;48.52;101277.75;4978974;28;45476;-72
2022/08/12 05:09:40;;;;;;;;;13.50;13.50;;;;;23.34;48.84;101281.22;4995681;28;45383;-73
2022/08/12 05:12:06;;;;;;;;;16.33;16.33;;;;;23.34;48.83;101270.44;4993472;28;63932;-74
2022/08/12 05:14:32;;;;;;;;;15.50;15.00;;;;;23.37;48.85;101278.41;4992604;28;45575;-73
2022/08/12 05:16:59;;;;;;;;;16.67;16.67;;;;;23.37;48.78;101280.22;4990861;28;45524;-74
2022/08/12 05:19:25;;;;;;;;;16.67;16.67;;;;;23.36;49.00;101290.13;4990436;28;45628;-73
2022/08/12 05:21:51;;;;;;;;;20.00;17.00;;;;;23.36;48.98;101282.03;4993051;28;45520;-73
2022/08/12 05:24:17;;;;;;;;;15.33;12.67;;;;;23.34;49.65;101286.63;4994420;28;45537;-72
2022/08/12 05:26:42;;;;;;;;;22.33;19.00;;;;;23.31;49.28;101288.53;5117234;22;45913;-74
2022/08/12 05:29:11;;;;;;;;;16.00;16.00;;;;;23.31;49.62;101289.41;5018371;28;68497;-73
2022/08/12 05:31:37;;;;;;;;;17.00;17.00;;;;;23.30;49.51;101290.34;5022570;28;45377;-74
2022/08/12 05:34:04;;;;;;;;;15.67;15.67;;;;;23.30;49.64;101290.34;5001527;28;45523;-73
2022/08/12 05:36:29;;;;;;;;;17.00;17.00;;;;;23.30;49.85;101286.78;5015356;28;46472;-73
2022/08/12 05:38:55;;;;;;;;;17.33;16.33;;;;;23.26;49.71;101286.88;5014431;28;70674;-74
2022/08/12 05:41:21;;;;;;;;;14.00;14.00;;;;;23.29;49.71;101288.59;4995658;28;45524;-74
2022/08/12 05:43:48;;;;;;;;;16.67;15.33;;;;;23.31;49.56;101286.72;5015584;28;45598;-73
2022/08/12 05:46:13;;;;;;;;;18.33;14.67;;;;;23.35;49.91;101298.28;5015509;28;47762;-72
2022/08/12 05:48:40;;;;;;;;;17.00;14.33;;;;;23.35;49.66;101299.16;5014006;28;46709;-72
2022/08/12 05:51:06;;;;;;;;;17.00;15.67;;;;;23.39;49.80;101302.63;5015303;28;45441;-73
2022/08/12 05:53:31;;;;;;;;;17.67;17.33;;;;;23.41;50.08;101306.16;5011212;28;45329;-73
2022/08/12 05:55:57;;;;;;;;;16.67;16.00;;;;;23.45;49.75;101300.59;5010332;28;47357;-72
2022/08/12 05:58:22;;;;;;;;;17.00;17.00;;;;;23.48;49.67;101292.38;5008345;28;61647;-74
2022/08/12 06:00:47;;;;;;;;;16.67;14.67;;;;;23.52;49.69;101299.44;5013743;28;66751;-74
2022/08/12 06:03:16;;;;;;;;;19.33;15.33;;;;;23.55;49.86;101309.25;5014812;28;64658;-73
2022/08/12 06:05:44;;;;;;;;;15.00;15.00;;;;;23.60;49.68;101301.00;5006247;28;47615;-72
2022/08/12 06:08:10;;;;;;;;;14.33;14.33;;;;;23.63;50.04;101295.50;5008854;28;45372;-73
2022/08/12 06:10:36;;;;;;;;;17.00;15.00;;;;;23.67;50.32;101299.88;5013387;28;45324;-73
2022/08/12 06:13:03;;;;;;;;;17.33;16.00;;;;;23.66;50.21;101290.03;5009216;28;45480;-72
2022/08/12 06:15:29;;;;;;;;;19.33;16.33;;;;;23.69;50.09;101288.09;5013158;28;46587;-76
2022/08/12 06:18:05;;;;;;;;;15.33;14.67;;;;;23.73;50.19;101296.94;5006517;28;45559;-73
2022/08/12 06:20:30;;;;;;;;;13.33;11.00;;;;;23.76;50.03;101297.72;5004132;28;45464;-73
2022/08/12 06:22:56;;;;;;;;;18.67;18.67;;;;;23.81;49.40;101296.66;5012283;28;61175;-73
2022/08/12 06:25:21;;;;;;;;;18.00;18.00;;;;;23.84;49.36;101296.56;5009904;28;47877;-74
2022/08/12 06:27:48;;;;;;;;;14.33;13.33;;;;;23.89;49.42;101303.53;5011981;28;45696;-73
2022/08/12 06:30:14;;;;;;;;;16.00;14.67;;;;;23.92;48.88;101294.47;5014969;28;45438;-76
2022/08/12 06:32:40;;;;;;;;;15.67;14.00;;;;;23.94;48.80;101295.28;5016070;28;45341;-74
2022/08/12 06:35:06;;;;;;;;;17.67;14.33;;;;;24.00;48.65;101289.66;5012891;28;47552;-74
2022/08/12 06:37:49;;;;;;;;;15.33;14.00;;;;;24.05;48.87;101287.66;5012870;28;45561;-74
2022/08/12 06:42:46;;;;;;;;;20.33;16.00;;;;;24.11;48.70;101291.94;5014923;28;45336;-75
2022/08/12 06:43:01;;;;;;;;;15.33;13.33;;;;;24.15;48.11;101293.59;5017851;28;45531;-73
2022/08/12 06:45:27;;;;;;;;;12.67;11.67;;;;;24.20;48.61;101287.09;5014558;28;47577;-74
2022/08/12 06:47:53;;;;;;;;;17.33;15.00;;;;;24.23;48.54;101289.66;5014100;28;46396;-75
2022/08/12 06:50:18;;;;;;;;;19.67;16.33;;;;;24.26;48.20;101294.94;5017525;28;45426;-75
2022/08/12 06:52:44;;;;;;;;;16.67;13.33;;;;;24.31;48.23;101292.06;5014826;28;64931;-75
2022/08/12 06:55:19;;;;;;;;;19.00;15.33;;;;;24.38;47.66;101293.63;5015773;28;67505;-76
2022/08/12 06:57:56;;;;;;;;;13.67;13.67;;;;;24.43;47.45;101297.00;5016575;28;45426;-77
2022/08/12 07:00:24;;;;;;;;;15.00;12.00;;;;;24.47;47.25;101292.38;5017182;28;45310;-75
2022/08/12 07:02:51;;;;;;;;;14.00;14.00;;;;;24.50;47.57;101286.84;5015241;28;45436;-75
2022/08/12 07:05:23;;;;;;;;;14.00;12.33;;;;;24.54;47.02;101285.78;5016026;28;46415;-75
2022/08/12 07:08:08;;;;;;;;;12.00;12.00;;;;;24.59;47.41;101300.00;5017133;28;45407;-75
2022/08/12 07:10:39;;;;;;;;;13.00;11.00;;;;;24.65;47.46;101288.94;5016615;28;45493;-75
2022/08/12 07:13:05;;;;;;;;;11.00;11.00;;;;;24.67;47.35;101295.19;5016661;28;45424;-75
2022/08/12 07:15:30;;;;;;;;;17.00;13.33;;;;;24.72;46.91;101292.31;5013758;28;46662;-75
2022/08/12 07:20:30;;;;;;;;;15.00;14.00;;;;;24.81;45.99;101281.97;5011550;28;45242;-77
2022/08/12 07:22:56;;;;;;;;;12.00;11.00;;;;;24.86;46.43;101287.19;5015784;28;45435;-75
2022/08/12 07:25:30;;;;;;;;;11.00;11.00;;;;;24.92;46.10;101286.06;5014048;28;46873;-77
2022/08/12 07:28:00;;;;;;;;;14.00;11.67;;;;;24.96;46.33;101280.47;5015422;28;45504;-75
2022/08/12 07:30:26;;;;;;;;;11.33;11.33;;;;;24.99;46.05;101277.66;5016316;28;45459;-75
2022/08/12 07:32:51;;;;;;;;;18.67;14.67;;;;;25.03;45.88;101279.25;5014038;28;45396;-77
2022/08/12 07:35:18;;;;;;;;;15.33;13.00;;;;;25.09;45.02;101280.88;5015784;28;47245;-75
2022/08/12 07:37:43;;;;;;;;;12.00;11.33;;;;;25.14;45.67;101276.16;5015911;28;45452;-76
2022/08/12 07:40:10;;;;;;;;;13.00;11.67;;;;;25.20;45.68;101275.03;5013361;28;45429;-75
2022/08/12 07:42:36;;;;;;;;;14.33;11.67;;;;;25.22;45.36;101268.59;5016540;28;45561;-75
2022/08/12 07:45:04;;;;;;;;;12.00;9.67;;;;;25.27;44.74;101271.09;5016334;28;46544;-76
2022/08/12 07:47:29;;;;;;;;;14.00;11.00;;;;;25.34;44.21;101268.06;5015939;28;45548;-76
2022/08/12 07:49:55;;;;;;;;;10.00;10.00;;;;;25.39;44.33;101262.44;5015960;28;45355;-75
2022/08/12 07:52:21;;;;;;;;;11.00;11.00;;;;;25.46;43.72;101271.16;5016289;28;45530;-74
2022/08/12 07:54:46;;;;;;;;;105.25;49.50;;;;;25.49;44.34;101271.03;5012275;28;70874;-76
2022/08/12 07:57:13;;;;;;;;;21.67;16.67;;;;;25.53;44.20;101273.53;5013829;28;45448;-74
2022/08/12 07:59:39;;;;;;;;;19.00;12.00;;;;;25.57;43.88;101264.34;5015925;28;45420;-76
2022/08/12 08:02:07;;;;;;;;;13.00;10.67;;;;;25.65;43.77;101263.13;5013492;28;64972;-75
2022/08/12 08:07:16;;;;;;;;;14.00;11.33;;;;;25.74;44.30;101268.13;5008493;28;45643;-76
2022/08/12 08:09:42;;;;;;;;;14.00;11.33;;;;;25.78;44.17;101264.34;5015584;28;45694;-77
2022/08/12 08:14:54;;;;;;;;;13.67;11.00;;;;;25.87;44.18;101263.94;5009550;28;45533;-77
2022/08/12 08:17:20;;;;;;;;;12.00;10.00;;;;;25.92;44.16;101263.72;5012955;28;45566;-76
2022/08/12 08:19:51;;;;;;;;;13.67;10.67;;;;;25.97;44.36;101265.28;5015192;28;45569;-75
2022/08/12 08:22:20;;;;;;;;;12.33;11.33;;;;;26.03;44.17;101266.81;5015695;28;45514;-74
2022/08/12 08:24:45;;;;;;;;;10.33;10.00;;;;;26.07;44.44;101265.72;5014486;28;46748;-75
2022/08/12 08:27:11;;;;;;;;;9.33;9.33;;;;;26.12;44.74;101266.41;5014207;28;45608;-73
2022/08/12 08:29:36;;;;;;;;;10.33;9.33;;;;;26.17;45.12;101271.59;5014467;28;60890;-74
2022/08/12 08:32:06;;;;;;;;;13.00;10.00;;;;;26.21;44.66;101275.91;5013969;28;54988;-74
2022/08/12 08:34:34;;;;;;;;;12.33;11.00;;;;;26.26;45.17;101273.84;5013668;28;46312;-73
2022/08/12 08:36:59;;;;;;;;;11.00;10.00;;;;;26.28;45.10;101264.72;5014615;28;45393;-73
2022/08/12 08:39:27;;;;;;;;;12.33;9.67;;;;;26.34;45.47;101258.13;5015310;28;45599;-73
2022/08/12 08:44:38;;;;;;;;;9.67;9.33;;;;;26.42;44.10;101261.41;5006836;28;45550;-75
2022/08/12 08:47:05;;;;;;;;;11.00;11.00;;;;;26.48;44.97;101260.22;5017036;28;45546;-75
2022/08/12 08:49:30;;;;;;;;;13.33;11.00;;;;;26.50;44.50;101264.59;5011105;28;45546;-76
2022/08/12 08:51:56;;;;;;;;;11.33;9.67;;;;;26.56;43.58;101264.28;5012162;28;48856;-75
2022/08/12 08:54:23;;;;;;;;;9.00;8.00;;;;;26.61;43.34;101269.50;5015133;28;47278;-75
2022/08/12 08:56:49;;;;;;;;;10.00;10.00;;;;;26.64;43.32;101267.50;5013025;28;45563;-76
2022/08/12 08:59:16;;;;;;;;;9.33;9.33;;;;;26.71;43.91;101264.50;5015010;28;45543;-73
2022/08/12 09:01:42;;;;;;;;;10.67;9.67;;;;;26.73;43.38;101263.47;5012455;28;45492;-74
2022/08/12 09:04:09;;;;;;;;;10.33;9.33;;;;;26.78;43.62;101258.69;5012227;28;46604;-75
2022/08/12 09:06:35;;;;;;;;;8.00;8.00;;;;;26.81;43.96;101263.09;5013818;28;45451;-74
2022/08/12 09:09:03;;;;;;;;;9.33;9.33;;;;;26.87;42.98;101262.78;5014467;28;45627;-73
2022/08/12 09:14:12;;;;;;;;;10.00;8.67;;;;;26.96;41.59;101261.47;5013836;28;45595;-73
2022/08/12 09:16:39;;;;;;;;;8.00;8.00;;;;;27.00;40.74;101260.31;5013543;28;66832;-72
2022/08/12 09:19:07;;;;;;;;;9.33;9.33;;;;;27.06;41.02;101260.91;5014523;28;45273;-74
2022/08/12 09:21:33;;;;;;;;;12.00;9.00;;;;;27.14;41.72;101257.81;5014594;28;45591;-74
2022/08/12 09:24:00;;;;;;;;;13.67;12.00;;;;;27.21;41.20;101261.09;5013299;28;65820;-75
2022/08/12 09:26:29;;;;;;;;;8.67;7.67;;;;;27.26;41.77;101256.31;5014325;28;46471;-76
2022/08/12 09:28:55;;;;;;;;;14.33;10.00;;;;;27.30;41.37;101247.94;5013207;28;45549;-74
2022/08/12 09:31:21;;;;;;;;;9.33;8.67;;;;;27.35;40.44;101245.00;5014132;28;45482;-74
2022/08/12 09:33:47;;;;;;;;;10.67;9.00;;;;;27.39;41.08;101247.47;5012371;28;47519;-73
2022/08/12 09:36:13;;;;;;;;;8.67;8.00;;;;;27.41;40.77;101248.25;5014442;28;45537;-75
2022/08/12 09:38:39;;;;;;;;;10.00;8.33;;;;;27.47;40.21;101248.88;5012912;28;45422;-75
2022/08/12 09:41:05;;;;;;;;;9.00;8.67;;;;;27.51;39.90;101243.22;5011335;28;45583;-75
2022/08/12 09:46:16;;;;;;;;;8.33;6.67;;;;;27.65;38.78;101239.78;5010709;28;45428;-76
2022/08/12 09:48:43;;;;;;;;;11.00;8.00;;;;;27.73;37.63;101239.41;5016548;28;45455;-74
2022/08/12 09:51:11;;;;;;;;;8.67;8.00;;;;;27.80;38.13;101241.69;5017754;28;45294;-74
2022/08/12 09:53:37;;;;;;;;;8.67;6.33;;;;;27.86;38.16;101240.50;5007910;28;45724;-73
2022/08/12 09:56:03;;;;;;;;;8.00;8.00;;;;;27.91;38.59;101238.38;5017180;28;45549;-76
2022/08/12 09:58:28;;;;;;;;;10.33;9.33;;;;;27.93;37.56;101233.75;5019618;28;45543;-73
2022/08/12 10:01:05;;;;;;;;;9.67;7.00;;;;;28.00;36.53;101235.16;5016880;28;45614;-75
2022/08/12 10:03:32;;;;;;;;;10.00;8.00;;;;;28.09;36.50;101236.50;5015326;28;47586;-74
2022/08/12 10:05:58;;;;;;;;;14.33;10.67;;;;;28.15;35.71;101223.44;5017205;28;45365;-74
2022/08/12 10:08:26;;;;;;;;;23.33;15.33;;;;;28.26;35.21;101232.84;5017147;28;45479;-74
2022/08/12 10:13:40;;;;;;;;;14.00;11.00;;;;;28.44;34.83;101216.41;5017649;28;46111;-73
2022/08/12 10:16:17;;;;;;;;;9.67;7.67;;;;;28.52;34.10;101209.66;5017399;28;45532;-72
2022/08/12 10:18:46;;;;;;;;;8.33;6.00;;;;;28.61;33.76;101209.13;5011767;28;45531;-74
2022/08/12 10:21:14;;;;;;;;;7.67;7.33;;;;;28.68;34.13;101208.66;5012783;28;45732;-73
2022/08/12 10:23:42;;;;;;;;;7.33;6.67;;;;;28.77;33.24;101207.25;5016779;28;47662;-74
2022/08/12 10:31:37;;;;;;;;;8.00;7.67;;;;;29.01;32.74;101201.34;5016769;28;45377;-74
2022/08/12 10:34:04;;;;;;;;;6.33;6.33;;;;;29.07;33.11;101196.41;5016343;28;46663;-74
2022/08/12 10:36:33;;;;;;;;;7.33;7.33;;;;;29.14;32.60;101197.81;5016679;28;45487;-72
2022/08/12 10:38:58;;;;;;;;;6.67;5.00;;;;;29.22;32.37;101181.00;5016246;28;45369;-73
2022/08/12 10:44:11;;;;;;;;;6.67;6.67;;;;;29.41;32.35;101176.19;5014542;28;46073;-73
2022/08/12 10:46:36;;;;;;;;;7.00;7.00;;;;;29.47;31.65;101185.81;5017103;28;45353;-73
2022/08/12 10:49:02;;;;;;;;;8.00;7.00;;;;;29.53;31.32;101181.81;5017070;28;47192;-73
2022/08/12 10:51:30;;;;;;;;;6.33;6.00;;;;;29.61;31.68;101179.50;5015655;28;58955;-73
2022/08/12 10:53:56;;;;;;;;;6.67;6.67;;;;;29.68;31.48;101170.00;5016485;28;47588;-72
2022/08/12 10:56:21;;;;;;;;;6.33;5.00;;;;;29.76;31.56;101170.38;5016175;28;45377;-74
2022/08/12 10:58:47;;;;;;;;;7.00;7.00;;;;;29.83;31.08;101169.03;5016944;28;61704;-73
2022/08/12 11:01:14;;;;;;;;;7.33;6.00;;;;;29.88;31.04;101157.81;5015879;28;45565;-73
2022/08/12 11:03:40;;;;;;;;;6.00;6.00;;;;;29.96;30.83;101163.66;5014420;28;46899;-75
2022/08/12 11:06:06;;;;;;;;;6.00;6.00;;;;;30.05;30.34;101163.06;5014924;28;45409;-73
2022/08/12 11:08:33;;;;;;;;;9.67;7.33;;;;;30.14;30.82;101159.75;5012454;28;45591;-74
2022/08/12 11:10:59;;;;;;;;;5.00;5.00;;;;;30.20;30.70;101151.19;5013168;28;45665;-73
2022/08/12 11:13:24;;;;;;;;;8.00;5.67;;;;;30.29;30.24;101151.53;5013519;28;60135;-73
2022/08/12 11:15:51;;;;;;;;;8.00;7.00;;;;;30.35;30.44;101156.56;5015052;28;45460;-74
2022/08/12 11:18:17;;;;;;;;;7.00;6.00;;;;;30.43;30.81;101140.59;5015133;28;45495;-74
2022/08/12 11:20:42;;;;;;;;;10.33;7.33;;;;;30.47;30.40;101145.75;5008882;28;45598;-74
2022/08/12 11:23:08;;;;;;;;;5.00;5.00;;;;;30.55;30.00;101136.16;5016076;28;46068;-74
2022/08/12 11:25:33;;;;;;;;;9.00;9.00;;;;;30.61;30.39;101133.91;5015145;28;69131;-75
2022/08/12 11:27:58;;;;;;;;;8.00;6.33;;;;;30.67;29.94;101128.03;5011867;28;45296;-72
2022/08/12 11:30:24;;;;;;;;;6.00;6.00;;;;;30.75;30.07;101122.97;5012402;28;48893;-72
2022/08/12 11:32:49;;;;;;;;;8.33;6.00;;;;;30.83;29.61;101116.09;5009773;28;73440;-72
2022/08/12 11:35:14;;;;;;;;;8.67;7.00;;;;;30.94;30.62;101124.41;5013499;28;70214;-72
2022/08/12 11:37:40;;;;;;;;;10.00;7.00;;;;;31.01;29.66;101126.59;5015954;28;45675;-73
2022/08/12 11:40:06;;;;;;;;;6.00;4.33;;;;;31.12;29.39;101127.72;5008601;28;45550;-75
2022/08/12 11:42:31;;;;;;;;;7.00;7.00;;;;;31.24;29.11;101119.50;5015824;28;46682;-73
2022/08/12 11:44:57;;;;;;;;;7.33;6.00;;;;;31.33;29.05;101118.03;5016191;28;45398;-72
2022/08/12 11:47:23;;;;;;;;;10.33;7.33;;;;;31.45;28.73;101108.09;5015376;28;45429;-74
2022/08/12 11:49:50;;;;;;;;;6.33;6.00;;;;;31.55;28.41;101107.31;5015307;28;63507;-75
2022/08/12 11:52:15;;;;;;;;;7.00;7.00;;;;;31.66;28.11;101102.91;5015556;28;47042;-73
2022/08/12 11:54:41;;;;;;;;;7.00;5.67;;;;;31.77;28.13;101114.78;5015466;28;48147;-73
2022/08/12 11:57:06;;;;;;;;;4.67;4.67;;;;;31.92;28.09;101103.75;5014485;28;59697;-74
2022/08/12 11:59:31;;;;;;;;;6.33;6.33;;;;;32.05;28.24;101105.44;5015719;28;52842;-74
2022/08/12 12:01:57;;;;;;;;;6.67;6.00;;;;;32.18;26.95;101108.16;5015064;28;67614;-73
2022/08/12 12:04:22;;;;;;;;;5.00;4.00;;;;;32.32;27.33;101090.69;5014447;28;45222;-74
2022/08/12 12:06:47;;;;;;;;;7.67;5.33;;;;;32.43;27.70;101092.63;5014595;28;57885;-74
2022/08/12 12:09:13;;;;;;;;;4.67;4.67;;;;;32.57;27.83;101101.53;5015750;28;45955;-75
2022/08/12 12:11:38;;;;;;;;;6.00;4.33;;;;;32.71;26.81;101096.88;5009532;28;70036;-75
2022/08/12 12:14:03;;;;;;;;;7.00;7.00;;;;;32.82;26.17;101097.75;5014648;28;45578;-75
2022/08/12 12:16:29;;;;;;;;;6.33;6.33;;;;;32.94;26.74;101095.97;5015199;28;60410;-73
2022/08/12 12:18:54;;;;;;;;;6.00;6.00;;;;;33.05;26.82;101084.16;5014519;28;45470;-77
2022/08/12 12:21:20;;;;;;;;;5.00;5.00;;;;;33.15;25.82;101074.22;5014892;28;45529;-72
2022/08/12 12:23:45;;;;;;;;;4.00;4.00;;;;;33.25;26.71;101080.69;5015107;28;45538;-72
2022/08/12 12:26:10;;;;;;;;;5.67;5.67;;;;;33.35;26.87;101076.22;5013170;28;60300;-72
2022/08/12 12:28:37;;;;;;;;;4.00;4.00;;;;;33.49;25.83;101079.72;4998202;28;59553;-73
2022/08/12 12:31:03;;;;;;;;;5.00;5.00;;;;;33.58;25.22;101071.63;5015076;28;46733;-73
2022/08/12 12:33:29;;;;;;;;;4.33;4.33;;;;;33.71;25.73;101070.63;5014327;28;45558;-73
2022/08/12 12:35:54;;;;;;;;;5.00;5.00;;;;;33.80;25.81;101075.34;5013785;28;52131;-72
2022/08/12 12:38:20;;;;;;;;;5.33;4.00;;;;;33.93;25.60;101080.66;5015024;28;45434;-72
2022/08/12 12:40:46;;;;;;;;;8.00;5.67;;;;;34.04;25.52;101080.69;5013652;28;46419;-71
2022/08/12 12:43:12;;;;;;;;;5.00;5.00;;;;;34.11;25.04;101069.06;5015127;28;45496;-73
2022/08/12 12:45:38;;;;;;;;;5.00;5.00;;;;;34.21;25.11;101076.53;5014883;28;45781;-72
2022/08/12 12:48:09;;;;;;;;;7.33;5.00;;;;;34.31;25.02;101074.75;5014147;28;45576;-73
2022/08/12 12:50:45;;;;;;;;;3.33;3.33;;;;;34.39;24.84;101053.00;5016361;28;46546;-73
2022/08/12 12:53:14;;;;;;;;;7.00;5.00;;;;;34.50;24.77;101057.59;5014738;28;45176;-72
2022/08/12 12:55:40;;;;;;;;;4.67;4.67;;;;;34.59;24.68;101062.31;5014960;28;45480;-73
2022/08/12 12:58:10;;;;;;;;;8.00;5.33;;;;;34.67;24.14;101060.63;5013851;28;45504;-73
2022/08/12 13:00:41;;;;;;;;;6.00;6.00;;;;;34.77;24.06;101051.59;5014811;28;47739;-74
2022/08/12 13:03:06;;;;;;;;;5.67;5.67;;;;;34.86;23.29;101054.41;5014322;28;45445;-73
2022/08/12 13:05:37;;;;;;;;;11.33;6.67;;;;;34.97;23.81;101049.88;5013448;28;45640;-75
2022/08/12 13:08:26;;;;;;;;;5.67;5.00;;;;;35.06;23.39;101047.19;5011496;28;45352;-74
2022/08/12 13:10:53;;;;;;;;;5.00;5.00;;;;;35.14;23.29;101036.38;5009600;28;46456;-74
2022/08/12 13:13:20;;;;;;;;;8.00;6.00;;;;;35.27;23.37;101043.53;5015042;28;45441;-74